sensor_id;sensor_type;location;lat;lon;timestamp;temperature;humidity
24207;DHT22;12351;52.284;9.160;2022-09-09T00:02:27;16.50;99.90
24207;DHT22;12351;52.284;9.160;2022-09-09T00:07:55;16.50;99.90
24207;DHT22;12351;52.284;9.160;2022-09-09T00:10:43;16.40;99.90
24207;DHT22;12351;52.284;9.160;2022-09-09T00:16:25;16.50;99.90
24207;DHT22;12351;52.284;9.160;2022-09-09T00:22:08;16.40;99.90
24207;DHT22;12351;52.284;9.160;2022-09-09T00:24:56;16.40;99.90
24207;DHT22;12351;52.284;9.160;2022-09-09T00:27:47;16.40;99.90
24207;DHT22;12351;52.284;9.160;2022-09-09T00:30:35;16.40;99.90
24207;DHT22;12351;52.284;9.160;2022-09-09T00:33:24;16.40;99.90
24207;DHT22;12351;52.284;9.160;2022-09-09T00:36:13;16.30;99.90
24207;DHT22;12351;52.284;9.160;2022-09-09T00:39:02;16.30;99.90
24207;DHT22;12351;52.284;9.160;2022-09-09T00:41:56;16.30;99.90
24207;DHT22;12351;52.284;9.160;2022-09-09T00:44:43;16.30;99.90
24207;DHT22;12351;52.284;9.160;2022-09-09T00:58:34;16.10;99.90
24207;DHT22;12351;52.284;9.160;2022-09-09T01:01:22;16.10;99.90
24207;DHT22;12351;52.284;9.160;2022-09-09T01:04:13;16.10;99.90
24207;DHT22;12351;52.284;9.160;2022-09-09T01:07:04;16.20;99.90
24207;DHT22;12351;52.284;9.160;2022-09-09T01:09:53;16.20;99.90
24207;DHT22;12351;52.284;9.160;2022-09-09T01:12:42;16.10;99.90
24207;DHT22;12351;52.284;9.160;2022-09-09T01:15:31;16.20;99.90
24207;DHT22;12351;52.284;9.160;2022-09-09T01:18:21;16.10;99.90
24207;DHT22;12351;52.284;9.160;2022-09-09T01:26:39;16.10;99.90
24207;DHT22;12351;52.284;9.160;2022-09-09T01:29:26;16.00;99.90
24207;DHT22;12351;52.284;9.160;2022-09-09T01:35:04;16.10;99.90
24207;DHT22;12351;52.284;9.160;2022-09-09T01:37:52;16.10;99.90
24207;DHT22;12351;52.284;9.160;2022-09-09T01:40:39;16.10;99.90
24207;DHT22;12351;52.284;9.160;2022-09-09T01:43:26;16.10;99.90
24207;DHT22;12351;52.284;9.160;2022-09-09T01:46:14;16.10;99.90
24207;DHT22;12351;52.284;9.160;2022-09-09T01:49:02;16.10;99.90
24207;DHT22;12351;52.284;9.160;2022-09-09T01:51:53;16.00;99.90
24207;DHT22;12351;52.284;9.160;2022-09-09T01:54:42;16.00;99.90
24207;DHT22;12351;52.284;9.160;2022-09-09T01:57:33;16.00;99.90
24207;DHT22;12351;52.284;9.160;2022-09-09T02:00:18;16.00;99.90
24207;DHT22;12351;52.284;9.160;2022-09-09T02:03:09;15.90;99.90
24207;DHT22;12351;52.284;9.160;2022-09-09T02:08:48;15.90;99.90
24207;DHT22;12351;52.284;9.160;2022-09-09T02:11:35;15.90;99.90
24207;DHT22;12351;52.284;9.160;2022-09-09T02:14:27;15.90;99.90
24207;DHT22;12351;52.284;9.160;2022-09-09T02:17:14;15.80;99.90
24207;DHT22;12351;52.284;9.160;2022-09-09T02:20:05;15.80;99.90
24207;DHT22;12351;52.284;9.160;2022-09-09T02:22:53;15.80;99.90
24207;DHT22;12351;52.284;9.160;2022-09-09T02:25:40;15.80;99.90
24207;DHT22;12351;52.284;9.160;2022-09-09T02:28:29;15.80;99.90
24207;DHT22;12351;52.284;9.160;2022-09-09T02:31:20;15.70;99.90
24207;DHT22;12351;52.284;9.160;2022-09-09T02:34:09;15.70;99.90
24207;DHT22;12351;52.284;9.160;2022-09-09T02:36:58;15.70;99.90
24207;DHT22;12351;52.284;9.160;2022-09-09T02:39:46;15.80;99.90
24207;DHT22;12351;52.284;9.160;2022-09-09T02:42:38;15.80;99.90
24207;DHT22;12351;52.284;9.160;2022-09-09T02:45:23;15.80;99.90
24207;DHT22;12351;52.284;9.160;2022-09-09T02:51:06;15.80;99.90
24207;DHT22;12351;52.284;9.160;2022-09-09T02:53:57;15.90;99.90
24207;DHT22;12351;52.284;9.160;2022-09-09T02:56:44;15.80;99.90
24207;DHT22;12351;52.284;9.160;2022-09-09T02:59:31;15.80;99.90
24207;DHT22;12351;52.284;9.160;2022-09-09T03:02:19;15.80;99.90
24207;DHT22;12351;52.284;9.160;2022-09-09T03:05:06;15.80;99.90
24207;DHT22;12351;52.284;9.160;2022-09-09T03:07:53;15.80;99.90
24207;DHT22;12351;52.284;9.160;2022-09-09T03:10:41;15.90;99.90
24207;DHT22;12351;52.284;9.160;2022-09-09T03:13:28;15.80;99.90
24207;DHT22;12351;52.284;9.160;2022-09-09T03:16:14;15.90;99.90
24207;DHT22;12351;52.284;9.160;2022-09-09T03:19:01;15.90;99.90
24207;DHT22;12351;52.284;9.160;2022-09-09T03:21:49;15.90;99.90
24207;DHT22;12351;52.284;9.160;2022-09-09T03:24:37;15.80;99.90
24207;DHT22;12351;52.284;9.160;2022-09-09T03:27:24;15.90;99.90
24207;DHT22;12351;52.284;9.160;2022-09-09T03:30:11;15.90;99.90
24207;DHT22;12351;52.284;9.160;2022-09-09T03:32:58;15.90;99.90
24207;DHT22;12351;52.284;9.160;2022-09-09T03:35:46;15.90;99.90
24207;DHT22;12351;52.284;9.160;2022-09-09T03:38:34;15.90;99.90
24207;DHT22;12351;52.284;9.160;2022-09-09T03:41:21;15.80;99.90
24207;DHT22;12351;52.284;9.160;2022-09-09T03:44:09;15.80;99.90
24207;DHT22;12351;52.284;9.160;2022-09-09T03:46:56;15.80;99.90
24207;DHT22;12351;52.284;9.160;2022-09-09T03:49:45;15.80;99.90
24207;DHT22;12351;52.284;9.160;2022-09-09T03:52:33;15.70;99.90
24207;DHT22;12351;52.284;9.160;2022-09-09T03:55:20;15.70;99.90
24207;DHT22;12351;52.284;9.160;2022-09-09T03:58:07;15.70;99.90
24207;DHT22;12351;52.284;9.160;2022-09-09T04:00:56;15.70;99.90
24207;DHT22;12351;52.284;9.160;2022-09-09T04:03:44;15.70;99.90
24207;DHT22;12351;52.284;9.160;2022-09-09T04:06:32;15.70;99.90
24207;DHT22;12351;52.284;9.160;2022-09-09T04:09:19;15.70;99.90
24207;DHT22;12351;52.284;9.160;2022-09-09T04:12:06;15.70;99.90
24207;DHT22;12351;52.284;9.160;2022-09-09T04:14:53;15.60;99.90
24207;DHT22;12351;52.284;9.160;2022-09-09T04:17:40;15.70;99.90
24207;DHT22;12351;52.284;9.160;2022-09-09T04:20:28;15.70;99.90
24207;DHT22;12351;52.284;9.160;2022-09-09T04:23:15;15.70;99.90
24207;DHT22;12351;52.284;9.160;2022-09-09T04:26:05;15.70;99.90
24207;DHT22;12351;52.284;9.160;2022-09-09T04:28:52;15.80;99.90
24207;DHT22;12351;52.284;9.160;2022-09-09T04:31:38;15.80;99.90
24207;DHT22;12351;52.284;9.160;2022-09-09T04:34:27;15.70;99.90
24207;DHT22;12351;52.284;9.160;2022-09-09T04:37:15;15.70;99.90
24207;DHT22;12351;52.284;9.160;2022-09-09T04:40:02;15.70;99.90
24207;DHT22;12351;52.284;9.160;2022-09-09T04:42:49;15.70;99.90
24207;DHT22;12351;52.284;9.160;2022-09-09T04:45:36;15.70;99.90
24207;DHT22;12351;52.284;9.160;2022-09-09T04:48:23;15.70;99.90
24207;DHT22;12351;52.284;9.160;2022-09-09T04:51:13;15.70;99.90
24207;DHT22;12351;52.284;9.160;2022-09-09T04:54:00;15.80;99.90
24207;DHT22;12351;52.284;9.160;2022-09-09T04:56:47;15.80;99.90
24207;DHT22;12351;52.284;9.160;2022-09-09T04:59:34;15.80;99.90
24207;DHT22;12351;52.284;9.160;2022-09-09T05:02:20;15.80;99.90
24207;DHT22;12351;52.284;9.160;2022-09-09T05:05:07;15.80;99.90
24207;DHT22;12351;52.284;9.160;2022-09-09T05:10:45;15.80;99.90
24207;DHT22;12351;52.284;9.160;2022-09-09T05:13:32;15.80;99.90
24207;DHT22;12351;52.284;9.160;2022-09-09T05:16:19;15.80;99.90
24207;DHT22;12351;52.284;9.160;2022-09-09T05:19:06;15.80;99.90
24207;DHT22;12351;52.284;9.160;2022-09-09T05:21:53;15.70;99.90
24207;DHT22;12351;52.284;9.160;2022-09-09T05:24:40;15.70;99.90
24207;DHT22;12351;52.284;9.160;2022-09-09T05:27:28;15.80;99.90
24207;DHT22;12351;52.284;9.160;2022-09-09T05:30:16;15.80;99.90
24207;DHT22;12351;52.284;9.160;2022-09-09T05:33:04;15.80;99.90
24207;DHT22;12351;52.284;9.160;2022-09-09T05:35:55;15.80;99.90
24207;DHT22;12351;52.284;9.160;2022-09-09T05:38:44;15.80;99.90
24207;DHT22;12351;52.284;9.160;2022-09-09T05:41:31;15.80;99.90
24207;DHT22;12351;52.284;9.160;2022-09-09T05:44:18;15.80;99.90
24207;DHT22;12351;52.284;9.160;2022-09-09T05:47:05;15.90;99.90
24207;DHT22;12351;52.284;9.160;2022-09-09T05:49:54;15.90;99.90
24207;DHT22;12351;52.284;9.160;2022-09-09T05:52:41;16.00;99.90
24207;DHT22;12351;52.284;9.160;2022-09-09T05:55:28;15.90;99.90
24207;DHT22;12351;52.284;9.160;2022-09-09T05:58:15;15.90;99.90
24207;DHT22;12351;52.284;9.160;2022-09-09T06:01:04;15.80;99.90
24207;DHT22;12351;52.284;9.160;2022-09-09T06:03:52;15.70;99.90
24207;DHT22;12351;52.284;9.160;2022-09-09T06:06:39;15.70;99.90
24207;DHT22;12351;52.284;9.160;2022-09-09T06:09:27;15.70;99.90
24207;DHT22;12351;52.284;9.160;2022-09-09T06:12:16;15.60;99.90
24207;DHT22;12351;52.284;9.160;2022-09-09T06:15:03;15.60;99.90
24207;DHT22;12351;52.284;9.160;2022-09-09T06:20:41;15.60;99.90
24207;DHT22;12351;52.284;9.160;2022-09-09T06:23:28;15.60;99.90
24207;DHT22;12351;52.284;9.160;2022-09-09T06:26:19;15.70;99.90
24207;DHT22;12351;52.284;9.160;2022-09-09T06:29:06;15.70;99.90
24207;DHT22;12351;52.284;9.160;2022-09-09T06:31:54;15.70;99.90
24207;DHT22;12351;52.284;9.160;2022-09-09T06:34:41;15.70;99.90
24207;DHT22;12351;52.284;9.160;2022-09-09T06:37:28;15.80;99.90
24207;DHT22;12351;52.284;9.160;2022-09-09T06:40:16;15.90;99.90
24207;DHT22;12351;52.284;9.160;2022-09-09T06:43:03;15.90;99.90
24207;DHT22;12351;52.284;9.160;2022-09-09T06:45:53;16.00;99.90
24207;DHT22;12351;52.284;9.160;2022-09-09T06:48:41;16.20;99.90
24207;DHT22;12351;52.284;9.160;2022-09-09T06:51:30;16.20;99.90
24207;DHT22;12351;52.284;9.160;2022-09-09T06:54:17;16.20;99.90
24207;DHT22;12351;52.284;9.160;2022-09-09T06:57:05;16.20;99.90
24207;DHT22;12351;52.284;9.160;2022-09-09T06:59:52;16.30;99.90
24207;DHT22;12351;52.284;9.160;2022-09-09T07:02:39;16.40;99.90
24207;DHT22;12351;52.284;9.160;2022-09-09T07:05:26;16.70;99.90
24207;DHT22;12351;52.284;9.160;2022-09-09T07:08:13;17.00;99.90
24207;DHT22;12351;52.284;9.160;2022-09-09T07:11:03;17.30;99.90
24207;DHT22;12351;52.284;9.160;2022-09-09T07:13:50;17.60;99.90
24207;DHT22;12351;52.284;9.160;2022-09-09T07:16:37;17.70;99.90
24207;DHT22;12351;52.284;9.160;2022-09-09T07:19:25;17.80;99.90
24207;DHT22;12351;52.284;9.160;2022-09-09T07:22:12;18.10;99.90
24207;DHT22;12351;52.284;9.160;2022-09-09T07:24:59;18.00;99.90
24207;DHT22;12351;52.284;9.160;2022-09-09T07:27:47;18.00;99.90
24207;DHT22;12351;52.284;9.160;2022-09-09T07:30:34;18.20;99.90
24207;DHT22;12351;52.284;9.160;2022-09-09T07:33:22;18.20;99.90
24207;DHT22;12351;52.284;9.160;2022-09-09T07:36:13;18.50;99.90
24207;DHT22;12351;52.284;9.160;2022-09-09T07:39:02;18.40;99.90
24207;DHT22;12351;52.284;9.160;2022-09-09T07:41:49;18.50;99.90
24207;DHT22;12351;52.284;9.160;2022-09-09T07:44:36;18.50;99.90
24207;DHT22;12351;52.284;9.160;2022-09-09T07:47:25;18.60;99.90
24207;DHT22;12351;52.284;9.160;2022-09-09T07:50:11;18.50;99.90
24207;DHT22;12351;52.284;9.160;2022-09-09T07:52:59;18.70;99.90
24207;DHT22;12351;52.284;9.160;2022-09-09T07:55:45;18.80;99.90
24207;DHT22;12351;52.284;9.160;2022-09-09T07:58:33;18.50;99.90
24207;DHT22;12351;52.284;9.160;2022-09-09T08:01:24;18.50;99.90
24207;DHT22;12351;52.284;9.160;2022-09-09T08:04:13;18.40;99.90
24207;DHT22;12351;52.284;9.160;2022-09-09T08:07:01;18.70;99.90
24207;DHT22;12351;52.284;9.160;2022-09-09T08:09:49;18.60;99.90
24207;DHT22;12351;52.284;9.160;2022-09-09T08:12:36;18.80;99.90
24207;DHT22;12351;52.284;9.160;2022-09-09T08:15:22;18.80;99.90
24207;DHT22;12351;52.284;9.160;2022-09-09T08:18:09;19.00;99.90
24207;DHT22;12351;52.284;9.160;2022-09-09T08:20:56;18.80;99.90
24207;DHT22;12351;52.284;9.160;2022-09-09T08:23:45;19.10;99.90
24207;DHT22;12351;52.284;9.160;2022-09-09T08:26:35;19.10;99.90
24207;DHT22;12351;52.284;9.160;2022-09-09T08:29:23;19.10;99.90
24207;DHT22;12351;52.284;9.160;2022-09-09T08:32:12;18.90;99.90
24207;DHT22;12351;52.284;9.160;2022-09-09T08:34:59;19.10;99.90
24207;DHT22;12351;52.284;9.160;2022-09-09T08:37:46;19.20;99.90
24207;DHT22;12351;52.284;9.160;2022-09-09T08:40:34;19.10;99.90
24207;DHT22;12351;52.284;9.160;2022-09-09T08:43:23;19.20;99.90
24207;DHT22;12351;52.284;9.160;2022-09-09T08:46:14;19.30;99.90
24207;DHT22;12351;52.284;9.160;2022-09-09T08:49:03;19.50;99.90
24207;DHT22;12351;52.284;9.160;2022-09-09T08:51:50;19.50;99.90
24207;DHT22;12351;52.284;9.160;2022-09-09T08:54:37;19.50;99.90
24207;DHT22;12351;52.284;9.160;2022-09-09T08:57:27;19.40;99.90
24207;DHT22;12351;52.284;9.160;2022-09-09T09:00:14;19.50;99.90
24207;DHT22;12351;52.284;9.160;2022-09-09T09:08:44;19.50;99.90
24207;DHT22;12351;52.284;9.160;2022-09-09T09:14:23;19.70;99.90
24207;DHT22;12351;52.284;9.160;2022-09-09T09:17:12;19.60;99.90
24207;DHT22;12351;52.284;9.160;2022-09-09T09:20:00;19.70;99.90
24207;DHT22;12351;52.284;9.160;2022-09-09T09:22:51;19.80;99.90
24207;DHT22;12351;52.284;9.160;2022-09-09T09:25:40;20.10;99.90
24207;DHT22;12351;52.284;9.160;2022-09-09T09:28:31;20.20;99.90
24207;DHT22;12351;52.284;9.160;2022-09-09T09:31:18;20.10;99.90
24207;DHT22;12351;52.284;9.160;2022-09-09T09:34:07;20.20;99.90
24207;DHT22;12351;52.284;9.160;2022-09-09T09:36:57;20.30;99.90
24207;DHT22;12351;52.284;9.160;2022-09-09T09:39:46;20.60;99.90
24207;DHT22;12351;52.284;9.160;2022-09-09T09:42:35;20.70;99.90
24207;DHT22;12351;52.284;9.160;2022-09-09T09:45:26;20.80;99.90
24207;DHT22;12351;52.284;9.160;2022-09-09T09:48:13;20.90;99.90
24207;DHT22;12351;52.284;9.160;2022-09-09T09:53:50;20.70;99.90
24207;DHT22;12351;52.284;9.160;2022-09-09T09:56:40;20.90;99.90
24207;DHT22;12351;52.284;9.160;2022-09-09T10:02:21;21.00;99.90
24207;DHT22;12351;52.284;9.160;2022-09-09T10:19:17;21.70;99.90
24207;DHT22;12351;52.284;9.160;2022-09-09T10:33:22;22.00;99.90
24207;DHT22;12351;52.284;9.160;2022-09-09T10:39:03;22.00;99.90
24207;DHT22;12351;52.284;9.160;2022-09-09T10:58:53;22.60;99.90
24207;DHT22;12351;52.284;9.160;2022-09-09T11:01:44;22.40;99.90
24207;DHT22;12351;52.284;9.160;2022-09-09T11:04:34;22.20;99.90
24207;DHT22;12351;52.284;9.160;2022-09-09T11:13:03;21.60;99.90
24207;DHT22;12351;52.284;9.160;2022-09-09T11:15:53;21.40;99.90
24207;DHT22;12351;52.284;9.160;2022-09-09T11:21:36;21.30;99.90
24207;DHT22;12351;52.284;9.160;2022-09-09T11:24:22;21.30;99.90
24207;DHT22;12351;52.284;9.160;2022-09-09T11:27:12;21.30;99.90
24207;DHT22;12351;52.284;9.160;2022-09-09T11:38:33;21.70;99.90
24207;DHT22;12351;52.284;9.160;2022-09-09T11:41:20;22.00;99.90
24207;DHT22;12351;52.284;9.160;2022-09-09T11:44:11;21.70;99.90
24207;DHT22;12351;52.284;9.160;2022-09-09T11:46:57;21.80;99.90
24207;DHT22;12351;52.284;9.160;2022-09-09T11:49:46;22.10;99.90
24207;DHT22;12351;52.284;9.160;2022-09-09T11:55:26;22.50;99.90
24207;DHT22;12351;52.284;9.160;2022-09-09T12:00:52;22.80;99.90
24207;DHT22;12351;52.284;9.160;2022-09-09T12:06:20;22.80;99.90
24207;DHT22;12351;52.284;9.160;2022-09-09T12:34:21;23.20;99.90
24207;DHT22;12351;52.284;9.160;2022-09-09T12:39:58;23.30;99.90
24207;DHT22;12351;52.284;9.160;2022-09-09T12:42:46;23.30;99.90
24207;DHT22;12351;52.284;9.160;2022-09-09T12:45:34;23.00;99.90
24207;DHT22;12351;52.284;9.160;2022-09-09T12:48:25;23.20;99.90
24207;DHT22;12351;52.284;9.160;2022-09-09T12:51:17;23.10;99.90
24207;DHT22;12351;52.284;9.160;2022-09-09T12:54:03;23.20;99.90
24207;DHT22;12351;52.284;9.160;2022-09-09T12:56:51;23.20;99.90
24207;DHT22;12351;52.284;9.160;2022-09-09T12:59:40;23.30;99.90
24207;DHT22;12351;52.284;9.160;2022-09-09T13:02:28;23.20;99.90
24207;DHT22;12351;52.284;9.160;2022-09-09T13:08:09;23.50;99.90
24207;DHT22;12351;52.284;9.160;2022-09-09T13:10:59;23.50;99.90
24207;DHT22;12351;52.284;9.160;2022-09-09T13:16:36;23.00;99.90
24207;DHT22;12351;52.284;9.160;2022-09-09T13:19:25;23.10;99.90
24207;DHT22;12351;52.284;9.160;2022-09-09T13:27:58;23.30;99.90
24207;DHT22;12351;52.284;9.160;2022-09-09T13:30:54;23.80;99.90
24207;DHT22;12351;52.284;9.160;2022-09-09T13:33:37;24.00;99.90
24207;DHT22;12351;52.284;9.160;2022-09-09T13:36:27;23.70;99.90
24207;DHT22;12351;52.284;9.160;2022-09-09T13:39:16;23.80;99.90
24207;DHT22;12351;52.284;9.160;2022-09-09T13:42:05;23.50;99.90
24207;DHT22;12351;52.284;9.160;2022-09-09T13:44:52;23.60;99.90
24207;DHT22;12351;52.284;9.160;2022-09-09T13:47:39;23.60;99.90
24207;DHT22;12351;52.284;9.160;2022-09-09T13:50:29;23.70;99.90
24207;DHT22;12351;52.284;9.160;2022-09-09T13:53:15;23.40;99.90
24207;DHT22;12351;52.284;9.160;2022-09-09T13:56:02;23.40;99.90
24207;DHT22;12351;52.284;9.160;2022-09-09T13:58:48;23.40;99.90
24207;DHT22;12351;52.284;9.160;2022-09-09T14:01:35;23.50;99.90
24207;DHT22;12351;52.284;9.160;2022-09-09T14:04:22;23.40;99.90
24207;DHT22;12351;52.284;9.160;2022-09-09T14:07:12;23.20;99.90
24207;DHT22;12351;52.284;9.160;2022-09-09T14:09:59;23.10;99.90
24207;DHT22;12351;52.284;9.160;2022-09-09T14:12:45;23.20;99.90
24207;DHT22;12351;52.284;9.160;2022-09-09T14:15:32;23.30;99.90
24207;DHT22;12351;52.284;9.160;2022-09-09T14:18:18;23.30;99.90
24207;DHT22;12351;52.284;9.160;2022-09-09T14:21:05;23.20;99.90
24207;DHT22;12351;52.284;9.160;2022-09-09T14:23:52;23.00;99.90
24207;DHT22;12351;52.284;9.160;2022-09-09T14:26:39;23.20;99.90
24207;DHT22;12351;52.284;9.160;2022-09-09T14:29:26;23.00;99.90
24207;DHT22;12351;52.284;9.160;2022-09-09T14:32:13;22.90;99.90
24207;DHT22;12351;52.284;9.160;2022-09-09T14:35:01;22.90;99.90
24207;DHT22;12351;52.284;9.160;2022-09-09T14:37:48;22.90;99.90
24207;DHT22;12351;52.284;9.160;2022-09-09T14:40:37;22.70;99.90
24207;DHT22;12351;52.284;9.160;2022-09-09T14:43:24;22.90;99.90
24207;DHT22;12351;52.284;9.160;2022-09-09T14:46:15;22.90;99.90
24207;DHT22;12351;52.284;9.160;2022-09-09T14:49:01;23.00;99.90
24207;DHT22;12351;52.284;9.160;2022-09-09T14:51:49;23.00;99.90
24207;DHT22;12351;52.284;9.160;2022-09-09T14:54:37;23.30;99.90
24207;DHT22;12351;52.284;9.160;2022-09-09T14:57:24;23.00;99.90
24207;DHT22;12351;52.284;9.160;2022-09-09T15:00:11;23.20;99.90
24207;DHT22;12351;52.284;9.160;2022-09-09T15:02:58;23.30;99.90
24207;DHT22;12351;52.284;9.160;2022-09-09T15:05:46;23.40;99.90
24207;DHT22;12351;52.284;9.160;2022-09-09T15:08:33;23.60;99.90
24207;DHT22;12351;52.284;9.160;2022-09-09T15:11:21;23.50;99.90
24207;DHT22;12351;52.284;9.160;2022-09-09T15:14:10;23.70;99.90
24207;DHT22;12351;52.284;9.160;2022-09-09T15:16:57;23.80;99.90
24207;DHT22;12351;52.284;9.160;2022-09-09T15:19:44;23.90;99.90
24207;DHT22;12351;52.284;9.160;2022-09-09T15:22:31;23.80;99.90
24207;DHT22;12351;52.284;9.160;2022-09-09T15:25:19;23.90;99.90
24207;DHT22;12351;52.284;9.160;2022-09-09T15:28:06;24.00;99.90
24207;DHT22;12351;52.284;9.160;2022-09-09T15:30:54;24.00;99.90
24207;DHT22;12351;52.284;9.160;2022-09-09T15:33:42;23.70;99.90
24207;DHT22;12351;52.284;9.160;2022-09-09T15:36:32;23.80;99.90
24207;DHT22;12351;52.284;9.160;2022-09-09T15:39:19;23.80;99.90
24207;DHT22;12351;52.284;9.160;2022-09-09T15:42:07;23.60;99.90
24207;DHT22;12351;52.284;9.160;2022-09-09T15:44:55;23.50;99.90
24207;DHT22;12351;52.284;9.160;2022-09-09T15:47:42;23.20;99.90
24207;DHT22;12351;52.284;9.160;2022-09-09T15:50:30;23.20;99.90
24207;DHT22;12351;52.284;9.160;2022-09-09T15:53:19;23.10;99.90
24207;DHT22;12351;52.284;9.160;2022-09-09T15:56:06;23.00;99.90
24207;DHT22;12351;52.284;9.160;2022-09-09T15:58:55;23.10;99.90
24207;DHT22;12351;52.284;9.160;2022-09-09T16:01:42;23.00;99.90
24207;DHT22;12351;52.284;9.160;2022-09-09T16:04:29;22.60;99.90
24207;DHT22;12351;52.284;9.160;2022-09-09T16:07:17;22.60;99.90
24207;DHT22;12351;52.284;9.160;2022-09-09T16:10:03;22.80;99.90
24207;DHT22;12351;52.284;9.160;2022-09-09T16:12:51;22.60;99.90
24207;DHT22;12351;52.284;9.160;2022-09-09T16:15:38;22.70;99.90
24207;DHT22;12351;52.284;9.160;2022-09-09T16:18:25;22.60;99.90
24207;DHT22;12351;52.284;9.160;2022-09-09T16:21:14;22.60;99.90
24207;DHT22;12351;52.284;9.160;2022-09-09T16:24:03;22.60;99.90
24207;DHT22;12351;52.284;9.160;2022-09-09T16:26:53;22.60;99.90
24207;DHT22;12351;52.284;9.160;2022-09-09T16:29:40;22.80;99.90
24207;DHT22;12351;52.284;9.160;2022-09-09T16:32:26;22.90;99.90
24207;DHT22;12351;52.284;9.160;2022-09-09T16:35:13;22.80;99.90
24207;DHT22;12351;52.284;9.160;2022-09-09T16:38:00;22.80;99.90
24207;DHT22;12351;52.284;9.160;2022-09-09T16:40:47;22.90;99.90
24207;DHT22;12351;52.284;9.160;2022-09-09T16:43:36;22.90;99.90
24207;DHT22;12351;52.284;9.160;2022-09-09T16:46:27;22.90;99.90
24207;DHT22;12351;52.284;9.160;2022-09-09T16:49:16;23.00;99.90
24207;DHT22;12351;52.284;9.160;2022-09-09T16:52:03;22.90;99.90
24207;DHT22;12351;52.284;9.160;2022-09-09T16:54:50;22.90;99.90
24207;DHT22;12351;52.284;9.160;2022-09-09T16:57:38;22.90;99.90
24207;DHT22;12351;52.284;9.160;2022-09-09T17:00:25;22.90;99.90
24207;DHT22;12351;52.284;9.160;2022-09-09T17:03:14;22.90;99.90
24207;DHT22;12351;52.284;9.160;2022-09-09T17:08:59;22.60;99.90
24207;DHT22;12351;52.284;9.160;2022-09-09T17:11:50;22.50;99.90
24207;DHT22;12351;52.284;9.160;2022-09-09T17:14:39;22.40;99.90
24207;DHT22;12351;52.284;9.160;2022-09-09T17:17:28;22.30;99.90
24207;DHT22;12351;52.284;9.160;2022-09-09T17:20:20;22.20;99.90
24207;DHT22;12351;52.284;9.160;2022-09-09T17:23:09;22.20;99.90
24207;DHT22;12351;52.284;9.160;2022-09-09T17:25:58;22.10;99.90
24207;DHT22;12351;52.284;9.160;2022-09-09T17:28:46;22.00;99.90
24207;DHT22;12351;52.284;9.160;2022-09-09T17:31:33;21.90;99.90
24207;DHT22;12351;52.284;9.160;2022-09-09T17:34:20;21.90;99.90
24207;DHT22;12351;52.284;9.160;2022-09-09T17:37:07;21.90;99.90
24207;DHT22;12351;52.284;9.160;2022-09-09T17:39:54;21.80;99.90
24207;DHT22;12351;52.284;9.160;2022-09-09T17:42:41;21.50;99.90
24207;DHT22;12351;52.284;9.160;2022-09-09T17:45:29;20.90;99.90
24207;DHT22;12351;52.284;9.160;2022-09-09T17:48:15;20.50;99.90
24207;DHT22;12351;52.284;9.160;2022-09-09T17:51:04;20.30;99.90
24207;DHT22;12351;52.284;9.160;2022-09-09T17:53:52;20.20;99.90
24207;DHT22;12351;52.284;9.160;2022-09-09T17:56:40;20.10;99.90
24207;DHT22;12351;52.284;9.160;2022-09-09T17:59:29;20.10;99.90
24207;DHT22;12351;52.284;9.160;2022-09-09T18:02:16;20.10;99.90
24207;DHT22;12351;52.284;9.160;2022-09-09T18:05:03;20.00;99.90
24207;DHT22;12351;52.284;9.160;2022-09-09T18:07:49;19.90;99.90
24207;DHT22;12351;52.284;9.160;2022-09-09T18:10:36;19.40;99.90
24207;DHT22;12351;52.284;9.160;2022-09-09T18:13:23;19.20;99.90
24207;DHT22;12351;52.284;9.160;2022-09-09T18:16:10;19.10;99.90
24207;DHT22;12351;52.284;9.160;2022-09-09T18:18:58;19.10;99.90
24207;DHT22;12351;52.284;9.160;2022-09-09T18:21:47;18.70;99.90
24207;DHT22;12351;52.284;9.160;2022-09-09T18:24:34;18.70;99.90
24207;DHT22;12351;52.284;9.160;2022-09-09T18:27:21;18.60;99.90
24207;DHT22;12351;52.284;9.160;2022-09-09T18:30:08;18.60;99.90
24207;DHT22;12351;52.284;9.160;2022-09-09T18:32:55;18.80;99.90
24207;DHT22;12351;52.284;9.160;2022-09-09T18:35:42;18.70;99.90
24207;DHT22;12351;52.284;9.160;2022-09-09T18:38:32;18.70;99.90
24207;DHT22;12351;52.284;9.160;2022-09-09T18:41:24;18.70;99.90
24207;DHT22;12351;52.284;9.160;2022-09-09T18:44:12;18.80;99.90
24207;DHT22;12351;52.284;9.160;2022-09-09T18:47:01;18.80;99.90
24207;DHT22;12351;52.284;9.160;2022-09-09T18:49:50;18.60;99.90
24207;DHT22;12351;52.284;9.160;2022-09-09T18:52:37;18.50;99.90
24207;DHT22;12351;52.284;9.160;2022-09-09T18:55:24;18.40;99.90
24207;DHT22;12351;52.284;9.160;2022-09-09T18:58:10;18.40;99.90
24207;DHT22;12351;52.284;9.160;2022-09-09T19:00:59;18.50;99.90
24207;DHT22;12351;52.284;9.160;2022-09-09T19:03:46;18.30;99.90
24207;DHT22;12351;52.284;9.160;2022-09-09T19:06:36;18.10;99.90
24207;DHT22;12351;52.284;9.160;2022-09-09T19:09:24;18.10;99.90
24207;DHT22;12351;52.284;9.160;2022-09-09T19:12:11;18.10;99.90
24207;DHT22;12351;52.284;9.160;2022-09-09T19:14:58;17.90;99.90
24207;DHT22;12351;52.284;9.160;2022-09-09T19:17:45;17.90;99.90
24207;DHT22;12351;52.284;9.160;2022-09-09T19:20:31;17.90;99.90
24207;DHT22;12351;52.284;9.160;2022-09-09T19:23:18;17.70;99.90
24207;DHT22;12351;52.284;9.160;2022-09-09T19:26:06;17.70;99.90
24207;DHT22;12351;52.284;9.160;2022-09-09T19:28:53;17.60;99.90
24207;DHT22;12351;52.284;9.160;2022-09-09T19:31:41;17.60;99.90
24207;DHT22;12351;52.284;9.160;2022-09-09T19:34:28;17.40;99.90
24207;DHT22;12351;52.284;9.160;2022-09-09T19:37:15;17.30;99.90
24207;DHT22;12351;52.284;9.160;2022-09-09T19:40:03;17.30;99.90
24207;DHT22;12351;52.284;9.160;2022-09-09T19:42:51;17.30;99.90
24207;DHT22;12351;52.284;9.160;2022-09-09T19:45:38;17.30;99.90
24207;DHT22;12351;52.284;9.160;2022-09-09T19:48:25;17.20;99.90
24207;DHT22;12351;52.284;9.160;2022-09-09T19:51:16;17.10;99.90
24207;DHT22;12351;52.284;9.160;2022-09-09T19:54:06;17.20;99.90
24207;DHT22;12351;52.284;9.160;2022-09-09T19:56:53;17.10;99.90
24207;DHT22;12351;52.284;9.160;2022-09-09T19:59:40;17.00;99.90
24207;DHT22;12351;52.284;9.160;2022-09-09T20:02:27;17.00;99.90
24207;DHT22;12351;52.284;9.160;2022-09-09T20:05:14;17.00;99.90
24207;DHT22;12351;52.284;9.160;2022-09-09T20:08:01;16.80;99.90
24207;DHT22;12351;52.284;9.160;2022-09-09T20:10:49;16.90;99.90
24207;DHT22;12351;52.284;9.160;2022-09-09T20:13:37;16.80;99.90
24207;DHT22;12351;52.284;9.160;2022-09-09T20:16:27;16.90;99.90
24207;DHT22;12351;52.284;9.160;2022-09-09T20:19:14;16.90;99.90
24207;DHT22;12351;52.284;9.160;2022-09-09T20:22:01;16.90;99.90
24207;DHT22;12351;52.284;9.160;2022-09-09T20:24:48;16.80;99.90
24207;DHT22;12351;52.284;9.160;2022-09-09T20:27:35;16.70;99.90